createdAt,value
2022-12-08T00:01:22.008Z,99783.50
2022-12-08T00:05:42.731Z,99789.53
2022-12-08T00:09:47.372Z,99791.81
2022-12-08T00:13:48.988Z,99788.00
2022-12-08T00:17:50.474Z,99785.56
2022-12-08T00:21:53.077Z,99783.31
2022-12-08T00:25:54.548Z,99784.13
2022-12-08T00:29:56.239Z,99782.09
2022-12-08T00:33:58.455Z,99781.19
2022-12-08T00:38:00.977Z,99785.56
2022-12-08T00:42:14.456Z,99786.63
2022-12-08T00:46:16.841Z,99777.91
2022-12-08T00:50:18.464Z,99783.25
2022-12-08T00:54:20.585Z,99776.19
2022-12-08T00:58:22.545Z,99776.44
2022-12-08T01:02:24.919Z,99774.72
2022-12-08T01:06:26.442Z,99774.41
2022-12-08T01:10:28.538Z,99775.63
2022-12-08T01:14:30.015Z,99772.16
2022-12-08T01:18:31.878Z,99778.16
2022-12-08T01:22:35.944Z,99771.50
2022-12-08T01:26:37.776Z,99777.09
2022-12-08T01:30:40.300Z,99777.09
2022-12-08T01:34:41.970Z,99769.53
2022-12-08T01:38:43.540Z,99770.53
2022-12-08T01:42:45.010Z,99764.31
2022-12-08T01:46:49.945Z,99750.94
2022-12-08T01:50:53.740Z,99756.84
2022-12-08T01:55:06.003Z,99752.66
2022-12-08T01:59:07.598Z,99753.66
2022-12-08T02:03:18.597Z,99749.31
2022-12-08T02:07:20.394Z,99751.19
2022-12-08T02:11:22.026Z,99746.34
2022-12-08T02:15:46.418Z,99735.47
2022-12-08T02:20:24.123Z,99732.53
2022-12-08T02:24:34.284Z,99724.75
2022-12-08T02:29:06.904Z,99717.94
2022-12-08T02:33:34.599Z,99732.09
2022-12-08T02:37:46.168Z,99712.22
2022-12-08T02:41:56.685Z,99725.25
2022-12-08T02:46:03.382Z,99711.63
2022-12-08T02:50:06.060Z,99712.19
2022-12-08T02:54:08.079Z,99711.19
2022-12-08T02:58:25.033Z,99707.59
2022-12-08T03:02:38.677Z,99705.75
2022-12-08T03:07:03.944Z,99696.13
2022-12-08T03:11:38.721Z,99698.16
2022-12-08T03:15:43.527Z,99701.69
2022-12-08T03:19:47.481Z,99707.66
2022-12-08T03:23:53.392Z,99695.53
2022-12-08T03:27:55.060Z,99688.78
2022-12-08T03:32:00.226Z,99688.03
2022-12-08T03:36:04.770Z,99688.88
2022-12-08T03:40:09.255Z,99685.19
2022-12-08T03:44:10.907Z,99689.53
2022-12-08T03:48:12.370Z,99682.78
2022-12-08T03:52:13.854Z,99672.84
2022-12-08T03:56:30.594Z,99669.34
2022-12-08T04:00:32.097Z,99665.72
2022-12-08T04:04:33.603Z,99665.28
2022-12-08T04:08:35.217Z,99657.94
2022-12-08T04:12:36.846Z,99661.38
2022-12-08T04:16:38.545Z,99660.63
2022-12-08T04:20:44.745Z,99653.53
2022-12-08T04:24:46.244Z,99650.00
2022-12-08T04:28:47.774Z,99646.38
2022-12-08T04:32:49.233Z,99654.84
2022-12-08T04:36:50.766Z,99649.06
2022-12-08T04:40:52.395Z,99646.31
2022-12-08T04:44:53.889Z,99645.16
2022-12-08T04:48:55.408Z,99639.53
2022-12-08T04:52:56.883Z,99637.28
2022-12-08T04:56:58.388Z,99637.31
2022-12-08T05:00:59.915Z,99632.78
2022-12-08T05:05:01.443Z,99636.06
2022-12-08T05:09:03.051Z,99633.56
2022-12-08T05:13:04.573Z,99636.91
2022-12-08T05:17:10.143Z,99634.88
2022-12-08T05:21:12.156Z,99624.53
2022-12-08T05:25:13.689Z,99622.94
2022-12-08T05:29:15.163Z,99617.69
2022-12-08T05:33:17.111Z,99615.84
2022-12-08T05:37:18.629Z,99620.09
2022-12-08T05:41:21.409Z,99618.41
2022-12-08T05:45:23.023Z,99615.91
2022-12-08T05:49:24.567Z,99612.41
2022-12-08T05:53:26.428Z,99607.16
2022-12-08T05:57:28.108Z,99612.41
2022-12-08T06:01:31.893Z,99614.28
2022-12-08T06:05:34.847Z,99617.13
2022-12-08T06:09:36.500Z,99615.97
2022-12-08T06:13:38.025Z,99617.56
2022-12-08T06:17:39.821Z,99627.25
2022-12-08T06:21:41.401Z,99618.53
2022-12-08T06:25:42.926Z,99619.00
2022-12-08T06:29:44.591Z,99623.75
2022-12-08T06:33:46.513Z,99628.66
2022-12-08T06:37:48.100Z,99629.31
2022-12-08T06:42:08.295Z,99625.16
2022-12-08T06:46:13.781Z,99630.25
2022-12-08T06:50:15.625Z,99631.44
2022-12-08T06:54:17.104Z,99631.34
2022-12-08T06:58:19.872Z,99631.06
2022-12-08T07:02:21.464Z,99635.25
2022-12-08T07:06:24.900Z,99640.66
2022-12-08T07:10:26.635Z,99641.31
2022-12-08T07:14:28.405Z,99640.13
2022-12-08T07:18:30.331Z,99641.84
2022-12-08T07:22:31.969Z,99636.69
2022-12-08T07:26:33.573Z,99635.34
2022-12-08T07:30:35.171Z,99631.44
2022-12-08T07:34:36.735Z,99636.00
2022-12-08T07:38:38.326Z,99627.16
2022-12-08T07:42:39.833Z,99634.88
2022-12-08T07:46:41.601Z,99634.44
2022-12-08T07:50:43.368Z,99638.09
2022-12-08T07:54:45.267Z,99627.94
2022-12-08T07:58:46.980Z,99639.91
2022-12-08T08:02:49.178Z,99629.50
2022-12-08T08:06:50.787Z,99640.44
2022-12-08T08:12:30.226Z,99636.56
2022-12-08T08:16:38.414Z,99640.59
2022-12-08T08:20:42.777Z,99643.47
2022-12-08T08:24:45.277Z,99644.97
2022-12-08T08:28:48.254Z,99644.81
2022-12-08T08:32:50.822Z,99640.25
2022-12-08T08:36:59.009Z,99635.84
2022-12-08T08:41:02.862Z,99645.28
2022-12-08T08:45:08.593Z,99642.53
2022-12-08T08:49:10.622Z,99640.06
2022-12-08T08:53:15.238Z,99632.78
2022-12-08T08:57:23.659Z,99640.44
2022-12-08T09:01:30.246Z,99644.88
2022-12-08T09:05:34.949Z,99650.75
2022-12-08T09:09:39.398Z,99650.56
2022-12-08T09:14:30.970Z,99653.19
2022-12-08T09:18:33.472Z,99651.66
2022-12-08T09:22:35.187Z,99657.88
2022-12-08T09:26:37.494Z,99653.63
2022-12-08T09:30:40.774Z,99633.56
2022-12-08T09:34:44.432Z,99629.00
2022-12-08T09:38:51.411Z,99628.63
2022-12-08T09:43:43.336Z,99629.44
2022-12-08T09:47:59.781Z,99622.72
2022-12-08T09:52:58.590Z,99611.97
2022-12-08T09:58:08.840Z,99613.72
2022-12-08T10:02:21.741Z,99601.34
2022-12-08T10:06:38.617Z,99600.06
2022-12-08T10:10:55.720Z,99591.72
2022-12-08T10:15:35.676Z,99597.47
2022-12-08T10:20:11.739Z,99587.53
2022-12-08T10:24:23.473Z,99584.16
2022-12-08T10:28:25.987Z,99576.47
2022-12-08T10:32:35.224Z,99579.50
2022-12-08T10:36:48.498Z,99585.34
2022-12-08T10:40:53.287Z,99587.03
2022-12-08T10:45:03.425Z,99583.72
2022-12-08T10:49:34.049Z,99576.66
2022-12-08T10:54:06.155Z,99572.44
2022-12-08T10:58:45.117Z,99565.31
2022-12-08T11:03:00.899Z,99559.16
2022-12-08T11:07:06.692Z,99558.50
2022-12-08T11:11:08.685Z,99548.53
2022-12-08T11:15:16.494Z,99551.63
2022-12-08T11:19:20.489Z,99547.56
2022-12-08T11:23:27.853Z,99546.97
2022-12-08T11:27:30.777Z,99535.28
2022-12-08T11:31:40.749Z,99541.84
2022-12-08T11:35:45.428Z,99535.16
2022-12-08T11:39:51.538Z,99529.19
2022-12-08T11:43:56.426Z,99531.97
2022-12-08T11:48:47.803Z,99535.25
2022-12-08T11:58:58.331Z,99522.22
2022-12-08T12:03:08.064Z,99528.78
2022-12-08T12:07:26.163Z,99527.13
2022-12-08T12:12:12.372Z,99526.38
2022-12-08T12:16:33.068Z,99523.88
2022-12-08T12:20:56.170Z,99518.28
2022-12-08T12:24:59.568Z,99502.16
2022-12-08T12:29:15.573Z,99497.34
2022-12-08T12:33:20.317Z,99496.72
2022-12-08T12:37:36.471Z,99505.69
2022-12-08T12:41:52.665Z,99495.03
2022-12-08T12:46:23.146Z,99507.72
2022-12-08T12:50:36.569Z,99491.88
2022-12-08T12:54:42.513Z,99489.88
2022-12-08T12:58:44.585Z,99497.63
2022-12-08T13:02:51.669Z,99488.28
2022-12-08T13:06:53.742Z,99492.41
2022-12-08T13:11:04.363Z,99488.00
2022-12-08T13:15:16.876Z,99476.03
2022-12-08T13:19:19.401Z,99471.44
2022-12-08T13:23:48.412Z,99473.31
2022-12-08T13:28:21.676Z,99469.31
2022-12-08T13:32:39.042Z,99475.22
2022-12-08T13:36:59.601Z,99458.66
2022-12-08T13:41:15.177Z,99459.44
2022-12-08T13:46:12.182Z,99461.13
2022-12-08T13:56:24.292Z,99473.53
2022-12-08T13:59:18.517Z,99480.53
2022-12-08T14:03:20.320Z,99481.06
2022-12-08T14:07:45.208Z,99477.50
2022-12-08T14:12:45.487Z,99484.84
2022-12-08T14:17:13.079Z,99479.84
2022-12-08T14:21:22.100Z,99475.63
2022-12-08T14:25:56.167Z,99477.88
2022-12-08T14:30:34.521Z,99479.84
2022-12-08T14:35:17.017Z,99476.72
2022-12-08T14:39:22.068Z,99477.25
2022-12-08T14:43:45.786Z,99468.16
2022-12-08T14:47:48.585Z,99476.50
2022-12-08T14:51:50.215Z,99480.56
2022-12-08T14:55:57.562Z,99478.84
2022-12-08T15:00:19.979Z,99477.84
2022-12-08T15:05:04.796Z,99473.38
2022-12-08T15:09:36.749Z,99475.03
2022-12-08T15:13:49.662Z,99486.56
2022-12-08T15:18:19.245Z,99482.13
2022-12-08T15:22:29.983Z,99489.44
2022-12-08T15:26:46.176Z,99488.63
2022-12-08T15:30:48.035Z,99496.84
2022-12-08T15:34:50.294Z,99490.69
2022-12-08T15:38:51.826Z,99497.94
2022-12-08T15:42:53.813Z,99495.84
2022-12-08T15:46:55.741Z,99497.56
2022-12-08T15:50:57.712Z,99498.19
2022-12-08T15:55:02.922Z,99496.00
2022-12-08T15:59:04.582Z,99503.13
2022-12-08T16:07:57.486Z,99490.66
2022-12-08T16:12:18.177Z,99489.81
2022-12-08T16:16:30.093Z,99488.25
2022-12-08T16:21:05.462Z,99498.22
2022-12-08T16:24:55.296Z,99493.34
2022-12-08T16:29:01.476Z,99491.19
2022-12-08T16:33:03.286Z,99494.38
2022-12-08T16:38:12.545Z,99493.00
2022-12-08T16:43:06.149Z,99494.63
2022-12-08T16:47:13.628Z,99495.56
2022-12-08T16:51:48.272Z,99498.25
2022-12-08T16:55:54.187Z,99502.53
2022-12-08T16:59:56.523Z,99493.06
2022-12-08T17:04:29.931Z,99490.59
2022-12-08T17:08:24.920Z,99501.56
2022-12-08T17:12:31.587Z,99496.97
2022-12-08T17:16:35.008Z,99489.44
2022-12-08T17:20:38.023Z,99493.47
2022-12-08T17:24:39.772Z,99496.34
2022-12-08T17:29:00.125Z,99495.81
2022-12-08T17:33:10.871Z,99495.56
2022-12-08T17:37:15.727Z,99495.84
2022-12-08T17:41:17.707Z,99494.16
2022-12-08T17:45:44.008Z,99496.66
2022-12-08T17:49:48.210Z,99492.94
2022-12-08T17:53:49.893Z,99495.84
2022-12-08T17:57:57.439Z,99487.91
2022-12-08T18:06:31.211Z,99492.63
2022-12-08T18:10:35.702Z,99487.66
2022-12-08T18:14:37.370Z,99485.97
2022-12-08T18:18:42.002Z,99488.44
2022-12-08T18:23:17.594Z,99480.69
2022-12-08T18:27:19.622Z,99488.91
2022-12-08T18:31:22.806Z,99481.47
2022-12-08T18:35:47.653Z,99483.94
2022-12-08T18:40:09.350Z,99488.59
2022-12-08T18:44:12.861Z,99491.44
2022-12-08T18:48:24.624Z,99486.81
2022-12-08T18:52:32.302Z,99486.38
2022-12-08T18:56:50.063Z,99483.00
2022-12-08T19:01:13.214Z,99480.63
2022-12-08T19:05:15.472Z,99480.25
2022-12-08T19:09:17.505Z,99488.06
2022-12-08T19:13:22.618Z,99483.81
2022-12-08T19:17:27.314Z,99480.69
2022-12-08T19:21:29.147Z,99467.53
2022-12-08T19:25:37.122Z,99471.28
2022-12-08T19:29:41.630Z,99473.97
2022-12-08T19:33:52.083Z,99470.91
2022-12-08T19:38:13.740Z,99485.97
2022-12-08T19:42:54.566Z,99481.41
2022-12-08T19:47:02.182Z,99484.72
2022-12-08T19:51:35.527Z,99487.03
2022-12-08T19:55:59.364Z,99494.69
2022-12-08T20:00:01.232Z,99487.72
2022-12-08T20:04:03.432Z,99495.84
2022-12-08T20:08:06.617Z,99489.19
2022-12-08T20:12:28.238Z,99495.72
2022-12-08T20:16:31.184Z,99498.97
2022-12-08T20:20:32.971Z,99505.72
2022-12-08T20:25:02.359Z,99511.78
2022-12-08T20:29:50.936Z,99506.53
2022-12-08T20:33:59.713Z,99508.72
2022-12-08T20:38:03.283Z,99515.50
2022-12-08T20:42:05.234Z,99516.38
2022-12-08T20:50:34.967Z,99515.81
2022-12-08T20:54:37.366Z,99523.50
2022-12-08T20:58:59.223Z,99522.72
2022-12-08T21:09:05.763Z,99530.34
2022-12-08T21:13:14.882Z,99535.53
2022-12-08T21:17:20.843Z,99529.97
2022-12-08T21:21:22.722Z,99534.00
2022-12-08T21:26:05.086Z,99527.66
2022-12-08T21:30:12.972Z,99539.88
2022-12-08T21:34:45.000Z,99538.41
2022-12-08T21:39:18.287Z,99541.09
2022-12-08T21:43:20.130Z,99543.50
2022-12-08T21:47:27.155Z,99551.47
2022-12-08T21:51:33.462Z,99552.47
2022-12-08T21:56:20.765Z,99541.09
2022-12-08T22:00:29.882Z,99543.59
2022-12-08T22:04:31.675Z,99545.66
2022-12-08T22:08:36.475Z,99542.53
2022-12-08T22:12:42.929Z,99535.59
2022-12-08T22:17:15.113Z,99544.53
2022-12-08T22:21:18.118Z,99547.75
2022-12-08T22:25:57.990Z,99551.38
2022-12-08T22:29:59.885Z,99547.97
2022-12-08T22:34:51.283Z,99545.28
2022-12-08T22:39:18.902Z,99554.47
2022-12-08T22:43:45.005Z,99549.00
2022-12-08T22:47:52.359Z,99544.50
2022-12-08T22:52:25.350Z,99548.06
2022-12-08T23:03:08.854Z,99549.91
2022-12-08T23:07:10.637Z,99545.78
2022-12-08T23:11:49.281Z,99546.66
2022-12-08T23:16:16.315Z,99542.41
2022-12-08T23:20:19.103Z,99544.13
2022-12-08T23:25:11.272Z,99546.75
2022-12-08T23:30:03.052Z,99547.28
2022-12-08T23:34:05.044Z,99551.00
2022-12-08T23:38:06.683Z,99542.47
2022-12-08T23:42:08.266Z,99541.69
2022-12-08T23:46:09.863Z,99545.66
2022-12-08T23:50:12.274Z,99541.66
2022-12-08T23:54:49.775Z,99542.41
2022-12-08T23:59:42.719Z,99545.78
